createdAt,value
2018-03-28T00:00:42.398Z,100568.88
2018-03-28T00:03:09.480Z,100573.20
2018-03-28T00:05:37.053Z,100569.19
2018-03-28T00:08:04.216Z,100561.84
2018-03-28T00:10:32.598Z,100559.73
2018-03-28T00:13:00.661Z,100563.00
2018-03-28T00:15:28.429Z,100564.55
2018-03-28T00:17:56.053Z,100561.52
2018-03-28T00:20:23.775Z,100556.56
2018-03-28T00:22:51.529Z,100557.67
2018-03-28T00:25:18.373Z,100556.50
2018-03-28T00:27:45.299Z,100554.91
2018-03-28T00:30:12.381Z,100558.59
2018-03-28T00:32:39.543Z,100554.48
2018-03-28T00:35:06.477Z,100555.20
2018-03-28T00:37:33.553Z,100549.68
2018-03-28T00:40:01.165Z,100547.84
2018-03-28T00:42:28.048Z,100541.00
2018-03-28T00:44:56.640Z,100546.88
2018-03-28T00:47:23.610Z,100549.13
2018-03-28T00:49:50.715Z,100548.08
2018-03-28T00:52:17.535Z,100546.16
2018-03-28T00:54:44.719Z,100545.66
2018-03-28T00:57:11.602Z,100549.14
2018-03-28T00:59:39.243Z,100553.84
2018-03-28T01:02:06.057Z,100552.48
2018-03-28T01:04:33.044Z,100552.06
2018-03-28T01:06:59.988Z,100565.97
2018-03-28T01:09:27.166Z,100575.59
2018-03-28T01:11:54.112Z,100582.11
2018-03-28T01:14:21.160Z,100579.37
2018-03-28T01:16:48.116Z,100589.98
2018-03-28T01:19:15.478Z,100600.09
2018-03-28T01:21:42.529Z,100601.54
2018-03-28T01:24:09.596Z,100598.37
2018-03-28T01:26:36.630Z,100600.48
2018-03-28T01:29:03.534Z,100601.73
2018-03-28T01:31:30.391Z,100607.06
2018-03-28T01:33:57.693Z,100605.88
2018-03-28T01:36:24.654Z,100607.53
2018-03-28T01:38:51.921Z,100603.85
2018-03-28T01:41:19.584Z,100600.44
2018-03-28T01:43:47.233Z,100591.09
2018-03-28T01:46:14.864Z,100581.22
2018-03-28T01:48:41.862Z,100576.65
2018-03-28T01:51:09.570Z,100575.70
2018-03-28T01:53:36.469Z,100574.02
2018-03-28T01:56:04.132Z,100579.50
2018-03-28T01:58:31.893Z,100580.59
2018-03-28T02:00:58.863Z,100588.62
2018-03-28T02:03:25.806Z,100588.22
2018-03-28T02:05:53.069Z,100578.55
2018-03-28T02:08:20.026Z,100575.89
2018-03-28T02:10:47.286Z,100560.52
2018-03-28T02:13:14.227Z,100572.20
2018-03-28T02:15:41.371Z,100569.15
2018-03-28T02:18:09.093Z,100570.33
2018-03-28T02:20:36.209Z,100569.55
2018-03-28T02:23:03.982Z,100568.83
2018-03-28T02:25:31.032Z,100553.84
2018-03-28T02:27:58.071Z,100553.89
2018-03-28T02:30:25.024Z,100557.56
2018-03-28T02:32:52.289Z,100557.80
2018-03-28T02:35:19.330Z,100559.55
2018-03-28T02:37:46.507Z,100556.89
2018-03-28T02:40:14.145Z,100553.72
2018-03-28T02:42:41.221Z,100559.00
2018-03-28T02:45:08.278Z,100549.92
2018-03-28T02:47:35.347Z,100554.22
2018-03-28T02:50:02.213Z,100554.14
2018-03-28T03:02:19.891Z,100556.11
2018-03-28T03:04:47.058Z,100558.66
2018-03-28T03:07:13.990Z,100563.58
2018-03-28T03:09:41.157Z,100557.72
2018-03-28T03:12:10.036Z,100555.47
2018-03-28T03:14:36.993Z,100541.98
2018-03-28T03:17:04.313Z,100557.08
2018-03-28T03:19:31.194Z,100547.38
2018-03-28T03:21:58.360Z,100560.51
2018-03-28T03:24:25.190Z,100571.57
2018-03-28T03:26:52.968Z,100572.40
2018-03-28T03:29:19.990Z,100561.20
2018-03-28T03:31:47.438Z,100560.23
2018-03-28T03:34:14.328Z,100560.89
2018-03-28T03:36:41.697Z,100558.83
2018-03-28T03:39:08.734Z,100560.81
2018-03-28T03:41:36.544Z,100573.32
2018-03-28T03:44:04.398Z,100569.64
2018-03-28T03:46:31.543Z,100570.77
2018-03-28T03:48:58.694Z,100568.23
2018-03-28T03:51:26.057Z,100579.48
2018-03-28T03:53:53.714Z,100582.72
2018-03-28T03:56:20.778Z,100582.47
2018-03-28T03:58:48.585Z,100586.60
2018-03-28T04:01:16.321Z,100581.64
2018-03-28T04:03:43.548Z,100581.84
2018-03-28T04:06:11.468Z,100580.91
2018-03-28T04:08:38.358Z,100580.46
2018-03-28T04:11:06.166Z,100579.45
2018-03-28T04:13:33.113Z,100586.08
2018-03-28T04:16:00.673Z,100583.31
2018-03-28T04:18:27.682Z,100582.27
2018-03-28T04:20:54.675Z,100581.66
2018-03-28T04:23:21.638Z,100571.70
2018-03-28T04:25:48.911Z,100567.50
2018-03-28T04:28:16.642Z,100568.92
2018-03-28T04:30:43.906Z,100570.42
2018-03-28T04:33:10.857Z,100560.02
2018-03-28T04:35:38.116Z,100556.55
2018-03-28T04:38:05.818Z,100550.27
2018-03-28T04:40:32.736Z,100554.25
2018-03-28T04:43:00.414Z,100555.80
2018-03-28T04:45:27.343Z,100559.04
2018-03-28T04:47:55.037Z,100564.30
2018-03-28T04:50:24.541Z,100566.16
2018-03-28T04:52:52.301Z,100574.98
2018-03-28T04:55:19.870Z,100574.83
2018-03-28T04:57:46.808Z,100570.55
2018-03-28T05:00:13.765Z,100561.47
2018-03-28T05:02:40.920Z,100555.01
2018-03-28T05:05:07.996Z,100558.52
2018-03-28T05:07:37.074Z,100550.72
2018-03-28T05:10:04.167Z,100545.16
2018-03-28T05:12:31.743Z,100537.77
2018-03-28T05:14:58.731Z,100540.48
2018-03-28T05:17:25.802Z,100541.64
2018-03-28T05:19:53.668Z,100539.86
2018-03-28T05:22:20.619Z,100534.45
2018-03-28T05:24:47.671Z,100539.50
2018-03-28T05:27:14.782Z,100538.25
2018-03-28T05:29:41.878Z,100535.95
2018-03-28T05:32:09.850Z,100528.36
2018-03-28T05:34:37.126Z,100531.58
2018-03-28T05:37:04.263Z,100525.26
2018-03-28T05:39:31.314Z,100522.79
2018-03-28T05:41:58.481Z,100526.47
2018-03-28T05:44:26.918Z,100522.89
2018-03-28T05:46:53.740Z,100519.75
2018-03-28T05:49:21.372Z,100528.83
2018-03-28T05:51:48.414Z,100528.81
2018-03-28T05:54:16.096Z,100524.03
2018-03-28T05:56:43.030Z,100518.20
2018-03-28T05:59:10.389Z,100516.64
2018-03-28T06:01:39.071Z,100512.19
2018-03-28T06:04:06.051Z,100526.06
2018-03-28T06:06:34.533Z,100525.55
2018-03-28T06:09:01.473Z,100519.92
2018-03-28T06:11:28.773Z,100526.53
2018-03-28T06:13:55.674Z,100527.97
2018-03-28T06:16:22.894Z,100523.15
2018-03-28T06:18:49.894Z,100521.36
2018-03-28T06:21:17.141Z,100519.34
2018-03-28T06:23:44.082Z,100518.29
2018-03-28T06:26:11.560Z,100507.31
2018-03-28T06:28:40.662Z,100503.16
2018-03-28T06:31:07.592Z,100500.63
2018-03-28T06:33:35.092Z,100497.85
2018-03-28T06:36:02.731Z,100496.33
2018-03-28T06:38:29.884Z,100489.36
2018-03-28T06:40:57.408Z,100484.01
2018-03-28T06:43:24.409Z,100487.27
2018-03-28T06:45:51.305Z,100489.09
2018-03-28T06:48:18.403Z,100481.33
2018-03-28T06:50:45.362Z,100483.77
2018-03-28T06:53:12.304Z,100471.22
2018-03-28T06:55:39.107Z,100476.30
2018-03-28T06:58:06.122Z,100464.02
2018-03-28T07:00:34.539Z,100468.08
2018-03-28T07:03:01.452Z,100464.70
2018-03-28T07:05:29.132Z,100462.72
2018-03-28T07:07:56.760Z,100468.92
2018-03-28T07:10:23.724Z,100463.69
2018-03-28T07:12:50.736Z,100462.11
2018-03-28T07:15:17.834Z,100467.42
2018-03-28T07:17:44.779Z,100462.27
2018-03-28T07:20:11.730Z,100454.03
2018-03-28T07:22:38.791Z,100448.13
2018-03-28T07:25:06.803Z,100442.78
2018-03-28T07:27:34.630Z,100447.14
2018-03-28T07:30:01.784Z,100452.79
2018-03-28T07:32:29.599Z,100452.81
2018-03-28T07:34:56.502Z,100457.52
2018-03-28T07:37:24.074Z,100458.31
2018-03-28T07:39:51.745Z,100452.00
2018-03-28T07:42:18.897Z,100459.11
2018-03-28T07:44:45.963Z,100446.50
2018-03-28T07:47:13.093Z,100450.92
2018-03-28T07:49:40.967Z,100449.66
2018-03-28T07:52:07.866Z,100440.70
2018-03-28T07:54:35.441Z,100439.98
2018-03-28T07:57:02.545Z,100446.17
2018-03-28T07:59:30.211Z,100451.52
2018-03-28T08:01:57.350Z,100444.33
2018-03-28T08:04:24.307Z,100440.73
2018-03-28T08:06:51.161Z,100442.67
2018-03-28T08:09:18.214Z,100436.00
2018-03-28T08:11:45.049Z,100443.00
2018-03-28T08:14:11.896Z,100429.66
2018-03-28T08:16:38.873Z,100431.16
2018-03-28T08:19:06.524Z,100430.55
2018-03-28T08:21:33.456Z,100434.05
2018-03-28T08:24:00.374Z,100429.95
2018-03-28T08:26:27.369Z,100423.95
2018-03-28T08:28:54.321Z,100426.34
2018-03-28T08:31:21.180Z,100422.52
2018-03-28T08:33:48.732Z,100416.53
2018-03-28T08:36:15.690Z,100413.27
2018-03-28T08:38:43.300Z,100414.84
2018-03-28T08:41:10.304Z,100414.49
2018-03-28T08:43:37.389Z,100413.49
2018-03-28T08:46:04.429Z,100422.66
2018-03-28T08:48:32.188Z,100418.14
2018-03-28T08:50:59.101Z,100415.16
2018-03-28T08:53:26.389Z,100406.89
2018-03-28T08:55:54.188Z,100405.63
2018-03-28T08:58:21.100Z,100403.42
2018-03-28T09:00:48.888Z,100401.38
2018-03-28T09:03:15.914Z,100400.51
2018-03-28T09:05:43.277Z,100401.66
2018-03-28T09:08:10.539Z,100394.95
2018-03-28T09:10:37.494Z,100398.78
2018-03-28T09:13:04.395Z,100382.97
2018-03-28T09:15:31.493Z,100379.64
2018-03-28T09:17:58.571Z,100380.00
2018-03-28T09:20:26.208Z,100371.55
2018-03-28T09:22:53.110Z,100369.71
2018-03-28T09:25:20.268Z,100371.80
2018-03-28T09:27:47.165Z,100361.30
2018-03-28T09:30:15.080Z,100366.30
2018-03-28T09:32:42.788Z,100362.60
2018-03-28T09:35:09.764Z,100359.42
2018-03-28T09:37:37.433Z,100362.44
2018-03-28T09:40:04.599Z,100357.61
2018-03-28T09:42:32.444Z,100356.86
2018-03-28T09:44:59.344Z,100358.65
2018-03-28T09:47:26.232Z,100363.64
2018-03-28T09:49:53.029Z,100359.84
2018-03-28T09:52:20.657Z,100352.89
2018-03-28T09:54:47.984Z,100347.86
2018-03-28T09:57:15.791Z,100348.50
2018-03-28T09:59:42.733Z,100343.47
2018-03-28T10:02:09.712Z,100336.47
2018-03-28T10:04:43.409Z,100337.19
2018-03-28T10:07:10.744Z,100332.34
2018-03-28T10:09:38.425Z,100326.94
2018-03-28T10:12:05.227Z,100318.03
2018-03-28T10:14:32.226Z,100309.55
2018-03-28T10:16:59.395Z,100307.78
2018-03-28T10:19:26.426Z,100305.50
2018-03-28T10:21:53.382Z,100297.48
2018-03-28T10:24:20.399Z,100300.67
2018-03-28T10:26:47.277Z,100294.11
2018-03-28T10:29:14.325Z,100294.86
2018-03-28T10:31:41.434Z,100289.75
2018-03-28T10:34:08.326Z,100278.03
2018-03-28T10:36:35.481Z,100277.42
2018-03-28T10:39:02.428Z,100274.59
2018-03-28T10:41:29.705Z,100264.47
2018-03-28T10:43:56.636Z,100252.62
2018-03-28T10:46:23.559Z,100252.97
2018-03-28T10:48:50.356Z,100241.36
2018-03-28T10:51:17.287Z,100243.22
2018-03-28T10:53:44.121Z,100230.71
2018-03-28T10:56:11.298Z,100227.41
2018-03-28T10:58:40.457Z,100226.42
2018-03-28T11:01:07.757Z,100215.77
2018-03-28T11:03:34.712Z,100209.63
2018-03-28T11:06:02.481Z,100200.48
2018-03-28T11:08:29.751Z,100191.27
2018-03-28T11:10:56.673Z,100194.80
2018-03-28T11:13:23.595Z,100194.81
2018-03-28T11:15:50.595Z,100190.34
2018-03-28T11:18:18.213Z,100180.09
2018-03-28T11:20:45.100Z,100169.25
2018-03-28T11:23:12.511Z,100164.18
2018-03-28T11:25:39.435Z,100154.55
2018-03-28T11:28:07.314Z,100150.78
2018-03-28T11:30:35.157Z,100100.45
2018-03-28T11:33:02.929Z,100130.15
2018-03-28T11:35:30.487Z,100121.61
2018-03-28T11:37:57.594Z,100116.89
2018-03-28T11:40:25.154Z,100106.48
2018-03-28T11:42:52.036Z,100108.70
2018-03-28T11:45:19.101Z,100104.34
2018-03-28T11:47:46.065Z,100092.45
2018-03-28T11:50:12.944Z,100088.95
2018-03-28T11:52:39.961Z,100089.81
2018-03-28T11:55:07.328Z,100090.70
2018-03-28T11:57:35.082Z,100085.75
2018-03-28T12:00:02.558Z,100080.04
2018-03-28T12:02:31.234Z,100084.41
2018-03-28T12:04:58.140Z,100080.84
2018-03-28T12:07:25.337Z,100077.41
2018-03-28T12:09:52.316Z,100074.61
2018-03-28T12:12:19.909Z,100068.23
2018-03-28T12:14:46.828Z,100060.25
2018-03-28T12:17:14.398Z,100057.80
2018-03-28T12:19:42.769Z,100055.86
2018-03-28T12:22:10.428Z,100054.22
2018-03-28T12:24:37.469Z,100045.72
2018-03-28T12:27:04.260Z,100044.95
2018-03-28T12:29:31.375Z,100038.78
2018-03-28T12:31:58.429Z,100040.92
2018-03-28T12:34:25.902Z,100041.84
2018-03-28T12:36:52.988Z,100035.56
2018-03-28T12:39:20.213Z,100029.15
2018-03-28T12:41:47.890Z,100018.08
2018-03-28T12:44:15.733Z,100012.71
2018-03-28T12:46:42.642Z,100003.56
2018-03-28T12:49:10.218Z,99986.45
2018-03-28T12:51:37.324Z,99980.15
2018-03-28T12:54:05.594Z,99984.31
2018-03-28T12:56:32.493Z,99976.27
2018-03-28T12:59:00.161Z,99962.55
2018-03-28T13:01:27.174Z,99952.73
2018-03-28T13:03:55.634Z,99953.08
2018-03-28T13:06:22.501Z,99955.10
2018-03-28T13:08:50.261Z,99955.84
2018-03-28T13:11:17.223Z,99967.50
2018-03-28T13:13:44.794Z,99963.81
2018-03-28T13:16:12.453Z,99966.70
2018-03-28T13:18:40.283Z,99971.13
2018-03-28T13:21:07.102Z,99978.97
2018-03-28T13:23:33.944Z,99975.00
2018-03-28T13:26:01.080Z,99964.29
2018-03-28T13:28:28.929Z,99962.00
2018-03-28T13:30:56.081Z,99952.64
2018-03-28T13:33:22.986Z,99944.87
2018-03-28T13:35:50.535Z,99940.48
2018-03-28T13:38:17.440Z,99932.82
2018-03-28T13:40:44.973Z,99913.41
2018-03-28T13:43:11.864Z,99904.26
2018-03-28T13:45:38.910Z,99895.59
2018-03-28T13:48:06.104Z,99893.11
2018-03-28T13:50:33.848Z,99885.98
2018-03-28T13:53:01.201Z,99883.23
2018-03-28T13:55:28.108Z,99872.53
2018-03-28T13:57:55.922Z,99866.92
2018-03-28T14:00:22.831Z,99857.76
2018-03-28T14:02:49.830Z,99846.35
2018-03-28T14:05:17.083Z,99843.25
2018-03-28T14:07:43.969Z,99837.34
2018-03-28T14:10:11.644Z,99836.63
2018-03-28T14:12:38.638Z,99837.64
2018-03-28T14:15:06.519Z,99834.64
2018-03-28T14:17:34.183Z,99818.84
2018-03-28T14:20:01.981Z,99816.18
2018-03-28T14:22:29.676Z,99812.31
2018-03-28T14:24:57.591Z,99799.62
2018-03-28T14:27:24.541Z,99793.05
2018-03-28T14:29:52.269Z,99795.95
2018-03-28T14:32:19.257Z,99787.09
2018-03-28T14:34:46.224Z,99781.38
2018-03-28T14:37:13.367Z,99781.59
2018-03-28T14:39:40.333Z,99784.23
2018-03-28T14:42:07.474Z,99792.78
2018-03-28T14:44:34.897Z,99781.29
2018-03-28T14:47:01.793Z,99785.16
2018-03-28T14:49:29.899Z,99781.55
2018-03-28T14:51:56.971Z,99776.42
2018-03-28T14:54:24.413Z,99772.66
2018-03-28T14:56:51.357Z,99757.34
2018-03-28T14:59:19.298Z,99758.98
2018-03-28T15:01:46.299Z,99751.16
2018-03-28T15:04:14.130Z,99747.66
2018-03-28T15:06:41.100Z,99741.75
2018-03-28T15:09:08.946Z,99724.59
2018-03-28T15:11:35.844Z,99719.37
2018-03-28T15:14:02.797Z,99730.02
2018-03-28T15:16:30.201Z,99734.02
2018-03-28T15:18:57.047Z,99739.33
2018-03-28T15:21:24.104Z,99743.44
2018-03-28T15:23:51.834Z,99740.77
2018-03-28T15:26:18.970Z,99742.20
2018-03-28T15:28:46.585Z,99740.10
2018-03-28T15:31:14.568Z,99731.66
2018-03-28T15:33:41.839Z,99731.35
2018-03-28T15:36:08.807Z,99732.17
2018-03-28T15:38:37.213Z,99736.31
2018-03-28T15:41:04.094Z,99730.08
2018-03-28T15:43:31.988Z,99723.71
2018-03-28T15:45:58.983Z,99728.50
2018-03-28T15:48:25.884Z,99725.46
2018-03-28T15:50:53.134Z,99725.08
2018-03-28T15:53:20.189Z,99722.07
2018-03-28T15:55:47.832Z,99723.46
2018-03-28T15:58:15.020Z,99730.55
2018-03-28T16:00:41.927Z,99731.66
2018-03-28T16:03:09.734Z,99731.13
2018-03-28T16:05:37.395Z,99716.84
2018-03-28T16:08:05.074Z,99723.05
2018-03-28T16:10:32.012Z,99721.88
2018-03-28T16:12:58.941Z,99720.77
2018-03-28T16:15:26.913Z,99743.32
2018-03-28T16:17:53.902Z,99748.74
2018-03-28T16:20:20.942Z,99749.23
2018-03-28T16:22:47.883Z,99752.56
2018-03-28T16:25:14.938Z,99752.03
2018-03-28T16:27:42.713Z,99752.79
2018-03-28T16:30:09.668Z,99762.53
2018-03-28T16:32:37.337Z,99764.20
2018-03-28T16:35:04.404Z,99774.84
2018-03-28T16:37:32.065Z,99773.28
2018-03-28T16:39:59.661Z,99773.93
2018-03-28T16:42:27.194Z,99780.36
2018-03-28T16:44:54.852Z,99790.11
2018-03-28T16:47:22.443Z,99796.86
2018-03-28T16:49:50.041Z,99794.78
2018-03-28T16:52:17.789Z,99801.71
2018-03-28T16:54:44.801Z,99806.84
2018-03-28T16:57:12.566Z,99806.48
2018-03-28T16:59:39.533Z,99811.86
2018-03-28T17:02:06.361Z,99814.11
2018-03-28T17:04:33.934Z,99824.59
2018-03-28T17:07:01.646Z,99825.57
2018-03-28T17:09:29.221Z,99833.80
2018-03-28T17:11:56.113Z,99848.52
2018-03-28T17:14:23.999Z,99857.33
2018-03-28T17:16:51.637Z,99864.25
2018-03-28T17:19:19.620Z,99879.61
2018-03-28T17:21:46.840Z,99875.77
2018-03-28T17:24:13.777Z,99888.73
2018-03-28T17:26:41.035Z,99892.46
2018-03-28T17:29:07.912Z,99903.17
2018-03-28T17:31:35.005Z,99908.20
2018-03-28T17:34:03.113Z,99913.94
2018-03-28T17:36:29.992Z,99928.03
2018-03-28T17:38:58.087Z,99932.41
2018-03-28T17:41:25.028Z,99938.22
2018-03-28T17:43:53.097Z,99947.84
2018-03-28T17:46:19.989Z,99950.78
2018-03-28T17:48:48.400Z,99961.16
2018-03-28T17:51:15.487Z,99963.66
2018-03-28T17:53:42.356Z,99976.10
2018-03-28T17:56:09.622Z,99980.17
2018-03-28T17:58:36.625Z,99991.30
2018-03-28T18:01:04.309Z,100002.93
2018-03-28T18:03:31.173Z,100007.22
2018-03-28T18:05:58.158Z,100017.77
2018-03-28T18:08:25.791Z,100017.69
2018-03-28T18:10:52.799Z,100026.89
2018-03-28T18:13:20.509Z,99974.19
2018-03-28T18:15:47.422Z,100031.84
2018-03-28T18:18:14.947Z,100050.57
2018-03-28T18:20:42.658Z,100055.95
2018-03-28T18:23:10.325Z,100084.23
2018-03-28T18:25:37.429Z,100080.99
2018-03-28T18:28:05.158Z,100096.67
2018-03-28T18:30:32.120Z,100095.94
2018-03-28T18:33:00.136Z,100098.95
2018-03-28T18:35:27.790Z,100114.54
2018-03-28T18:37:56.233Z,100123.80
2018-03-28T18:40:23.130Z,100124.16
2018-03-28T18:42:51.555Z,100129.96
2018-03-28T18:45:18.564Z,100123.15
2018-03-28T18:47:46.743Z,100128.02
2018-03-28T18:50:13.860Z,100127.95
2018-03-28T18:52:41.709Z,100135.20
2018-03-28T18:55:08.897Z,100141.06
2018-03-28T18:57:36.532Z,100139.90
2018-03-28T19:00:03.642Z,100151.39
2018-03-28T19:02:32.194Z,100146.45
2018-03-28T19:04:59.109Z,100149.58
2018-03-28T19:07:26.782Z,100158.14
2018-03-28T19:09:53.689Z,100169.19
2018-03-28T19:12:21.448Z,100174.16
2018-03-28T19:14:48.440Z,100175.74
2018-03-28T19:17:16.213Z,100177.41
2018-03-28T19:19:43.228Z,100185.05
2018-03-28T19:22:11.182Z,100186.21
2018-03-28T19:24:38.109Z,100184.39
2018-03-28T19:27:05.221Z,100191.05
2018-03-28T19:29:32.353Z,100196.83
2018-03-28T19:32:00.026Z,100205.59
2018-03-28T19:34:27.178Z,100203.34
2018-03-28T19:36:54.329Z,100202.37
2018-03-28T19:39:22.038Z,100220.91
2018-03-28T19:41:49.045Z,100216.70
2018-03-28T19:44:16.368Z,100222.73
2018-03-28T19:46:43.346Z,100230.23
2018-03-28T19:49:11.166Z,100230.28
2018-03-28T19:51:38.153Z,100230.86
2018-03-28T19:54:05.940Z,100236.87
2018-03-28T19:56:32.945Z,100235.97
2018-03-28T19:58:59.790Z,100241.97
2018-03-28T20:01:28.285Z,100240.16
2018-03-28T20:03:55.956Z,100241.81
2018-03-28T20:06:22.910Z,100242.63
2018-03-28T20:08:49.908Z,100246.73
2018-03-28T20:11:17.105Z,100253.27
2018-03-28T20:13:44.002Z,100258.64
2018-03-28T20:16:11.781Z,100258.48
2018-03-28T20:18:39.123Z,100261.18
2018-03-28T20:21:07.965Z,100269.29
2018-03-28T20:23:34.896Z,100269.47
2018-03-28T20:26:02.190Z,100271.92
2018-03-28T20:28:29.236Z,100281.37
2018-03-28T20:30:56.850Z,100282.27
2018-03-28T20:33:23.805Z,100288.69
2018-03-28T20:35:51.527Z,100292.38
2018-03-28T20:38:18.450Z,100289.97
2018-03-28T20:40:47.006Z,100292.47
2018-03-28T20:43:13.962Z,100286.19
2018-03-28T20:45:41.002Z,100301.37
2018-03-28T20:48:08.169Z,100303.70
2018-03-28T20:50:35.006Z,100306.36
2018-03-28T20:53:02.992Z,100308.94
2018-03-28T20:55:29.880Z,100311.27
2018-03-28T20:57:57.551Z,100308.45
2018-03-28T21:00:24.395Z,100312.44
2018-03-28T21:02:51.608Z,100323.40
2018-03-28T21:05:18.880Z,100323.13
2018-03-28T21:07:45.890Z,100329.14
2018-03-28T21:10:13.489Z,100327.75
2018-03-28T21:12:40.383Z,100336.33
2018-03-28T21:15:08.009Z,100335.47
2018-03-28T21:17:34.814Z,100342.14
2018-03-28T21:20:01.686Z,100341.09
2018-03-28T21:22:28.856Z,100346.22
2018-03-28T21:24:55.773Z,100355.37
2018-03-28T21:27:23.571Z,100353.77
2018-03-28T21:29:50.523Z,100352.16
2018-03-28T21:32:18.154Z,100357.19
2018-03-28T21:34:45.135Z,100360.31
2018-03-28T21:37:12.822Z,100361.34
2018-03-28T21:39:40.466Z,100374.11
2018-03-28T21:42:08.224Z,100373.25
2018-03-28T21:44:35.211Z,100371.22
2018-03-28T21:47:03.470Z,100379.45
2018-03-28T21:49:30.425Z,100375.52
2018-03-28T21:51:58.036Z,100380.81
2018-03-28T21:54:24.933Z,100389.25
2018-03-28T21:56:51.899Z,100392.09
2018-03-28T21:59:19.555Z,100392.58
2018-03-28T22:01:46.468Z,100393.92
2018-03-28T22:04:14.076Z,100396.81
2018-03-28T22:06:41.003Z,100399.44
2018-03-28T22:09:08.770Z,100405.59
2018-03-28T22:11:35.931Z,100403.40
2018-03-28T22:14:03.751Z,100399.58
2018-03-28T22:16:30.648Z,100401.61
2018-03-28T22:18:57.501Z,100401.23
2018-03-28T22:21:25.890Z,100408.75
2018-03-28T22:23:52.844Z,100407.53
2018-03-28T22:26:19.844Z,100410.70
2018-03-28T22:28:46.622Z,100411.15
2018-03-28T22:31:13.397Z,100421.56
2018-03-28T22:33:40.541Z,100418.28
2018-03-28T22:36:07.603Z,100423.71
2018-03-28T22:38:35.367Z,100425.62
2018-03-28T22:41:02.334Z,100423.17
2018-03-28T22:43:30.199Z,100425.44
2018-03-28T22:45:57.780Z,100426.69
2018-03-28T22:48:25.376Z,100423.67
2018-03-28T22:50:52.288Z,100431.38
2018-03-28T22:53:20.760Z,100427.20
2018-03-28T22:55:47.697Z,100434.00
2018-03-28T22:58:15.461Z,100436.03
2018-03-28T23:00:42.412Z,100439.46
2018-03-28T23:03:10.216Z,100440.30
2018-03-28T23:05:37.134Z,100439.98
2018-03-28T23:08:04.205Z,100444.70
2018-03-28T23:10:31.344Z,100447.39
2018-03-28T23:12:58.248Z,100448.33
2018-03-28T23:15:25.911Z,100451.21
2018-03-28T23:17:53.003Z,100458.05
2018-03-28T23:20:20.621Z,100458.68
2018-03-28T23:22:47.529Z,100461.84
2018-03-28T23:25:14.324Z,100455.62
2018-03-28T23:27:41.644Z,100460.34
2018-03-28T23:30:08.682Z,100457.26
2018-03-28T23:32:36.369Z,100460.52
2018-03-28T23:35:03.302Z,100462.59
2018-03-28T23:37:30.155Z,100460.55
2018-03-28T23:39:57.471Z,100458.77
2018-03-28T23:42:24.484Z,100458.94
2018-03-28T23:44:52.890Z,100462.34
2018-03-28T23:47:19.797Z,100463.38
2018-03-28T23:49:47.568Z,100463.45
2018-03-28T23:52:14.737Z,100464.73
2018-03-28T23:54:41.767Z,100464.03
2018-03-28T23:57:09.076Z,100467.69
2018-03-28T23:59:35.907Z,100474.25
